sensor_id;sensor_type;location;lat;lon;timestamp;P1;durP1;ratioP1;P2;durP2;ratioP2
60726;SDS011;46577;49.004;12.120;2023-09-12T00:02:16;23.00;;;20.23;;
60726;SDS011;46577;49.004;12.120;2023-09-12T00:04:42;23.17;;;19.47;;
60726;SDS011;46577;49.004;12.120;2023-09-12T00:07:08;23.30;;;20.03;;
60726;SDS011;46577;49.004;12.120;2023-09-12T00:09:34;22.37;;;19.00;;
60726;SDS011;46577;49.004;12.120;2023-09-12T00:12:00;21.47;;;19.23;;
60726;SDS011;46577;49.004;12.120;2023-09-12T00:14:26;23.03;;;20.03;;
60726;SDS011;46577;49.004;12.120;2023-09-12T00:16:52;24.73;;;20.30;;
60726;SDS011;46577;49.004;12.120;2023-09-12T00:19:20;23.70;;;19.20;;
60726;SDS011;46577;49.004;12.120;2023-09-12T00:21:46;22.60;;;19.80;;
60726;SDS011;46577;49.004;12.120;2023-09-12T00:24:12;27.07;;;20.83;;
60726;SDS011;46577;49.004;12.120;2023-09-12T00:26:38;29.00;;;21.40;;
60726;SDS011;46577;49.004;12.120;2023-09-12T00:29:04;24.63;;;20.10;;
60726;SDS011;46577;49.004;12.120;2023-09-12T00:31:30;22.57;;;19.70;;
60726;SDS011;46577;49.004;12.120;2023-09-12T00:33:56;25.37;;;19.73;;
60726;SDS011;46577;49.004;12.120;2023-09-12T00:36:22;29.10;;;22.00;;
60726;SDS011;46577;49.004;12.120;2023-09-12T00:38:48;29.73;;;21.30;;
60726;SDS011;46577;49.004;12.120;2023-09-12T00:41:14;26.77;;;19.57;;
60726;SDS011;46577;49.004;12.120;2023-09-12T00:43:40;33.37;;;21.40;;
60726;SDS011;46577;49.004;12.120;2023-09-12T00:46:06;34.83;;;21.60;;
60726;SDS011;46577;49.004;12.120;2023-09-12T00:48:32;31.40;;;21.67;;
60726;SDS011;46577;49.004;12.120;2023-09-12T00:50:58;24.00;;;21.00;;
60726;SDS011;46577;49.004;12.120;2023-09-12T00:53:24;28.70;;;20.83;;
60726;SDS011;46577;49.004;12.120;2023-09-12T00:55:51;23.27;;;20.47;;
60726;SDS011;46577;49.004;12.120;2023-09-12T00:58:21;23.90;;;20.63;;
60726;SDS011;46577;49.004;12.120;2023-09-12T01:00:47;26.20;;;18.90;;
60726;SDS011;46577;49.004;12.120;2023-09-12T01:03:13;24.27;;;18.90;;
60726;SDS011;46577;49.004;12.120;2023-09-12T01:05:40;22.90;;;19.63;;
60726;SDS011;46577;49.004;12.120;2023-09-12T01:08:06;23.80;;;19.17;;
60726;SDS011;46577;49.004;12.120;2023-09-12T01:10:32;22.40;;;20.00;;
60726;SDS011;46577;49.004;12.120;2023-09-12T01:12:58;24.47;;;21.43;;
60726;SDS011;46577;49.004;12.120;2023-09-12T01:15:24;29.07;;;21.93;;
60726;SDS011;46577;49.004;12.120;2023-09-12T01:17:50;29.50;;;21.33;;
60726;SDS011;46577;49.004;12.120;2023-09-12T01:20:23;29.70;;;20.43;;
60726;SDS011;46577;49.004;12.120;2023-09-12T01:22:55;26.60;;;19.03;;
60726;SDS011;46577;49.004;12.120;2023-09-12T01:28:05;24.37;;;19.53;;
60726;SDS011;46577;49.004;12.120;2023-09-12T01:30:31;27.80;;;21.70;;
60726;SDS011;46577;49.004;12.120;2023-09-12T01:32:58;23.53;;;20.73;;
60726;SDS011;46577;49.004;12.120;2023-09-12T01:35:24;31.43;;;21.70;;
60726;SDS011;46577;49.004;12.120;2023-09-12T01:37:50;27.43;;;21.43;;
60726;SDS011;46577;49.004;12.120;2023-09-12T01:40:16;27.50;;;21.20;;
60726;SDS011;46577;49.004;12.120;2023-09-12T01:42:43;27.83;;;21.27;;
60726;SDS011;46577;49.004;12.120;2023-09-12T01:45:11;27.47;;;21.27;;
60726;SDS011;46577;49.004;12.120;2023-09-12T01:47:39;21.87;;;19.57;;
60726;SDS011;46577;49.004;12.120;2023-09-12T01:50:05;23.70;;;20.73;;
60726;SDS011;46577;49.004;12.120;2023-09-12T01:52:33;29.27;;;21.03;;
60726;SDS011;46577;49.004;12.120;2023-09-12T01:54:59;23.70;;;20.17;;
60726;SDS011;46577;49.004;12.120;2023-09-12T01:57:25;27.20;;;21.60;;
60726;SDS011;46577;49.004;12.120;2023-09-12T01:59:51;23.33;;;20.53;;
60726;SDS011;46577;49.004;12.120;2023-09-12T02:02:17;26.10;;;20.37;;
60726;SDS011;46577;49.004;12.120;2023-09-12T02:04:46;24.27;;;21.23;;
60726;SDS011;46577;49.004;12.120;2023-09-12T02:07:15;27.03;;;21.87;;
60726;SDS011;46577;49.004;12.120;2023-09-12T02:09:41;28.77;;;20.93;;
60726;SDS011;46577;49.004;12.120;2023-09-12T02:12:07;25.07;;;20.43;;
60726;SDS011;46577;49.004;12.120;2023-09-12T02:14:34;30.40;;;22.07;;
60726;SDS011;46577;49.004;12.120;2023-09-12T02:16:59;24.27;;;21.67;;
60726;SDS011;46577;49.004;12.120;2023-09-12T02:19:25;26.23;;;20.43;;
60726;SDS011;46577;49.004;12.120;2023-09-12T02:21:51;27.47;;;22.97;;
60726;SDS011;46577;49.004;12.120;2023-09-12T02:24:17;32.60;;;24.57;;
60726;SDS011;46577;49.004;12.120;2023-09-12T02:26:46;26.10;;;22.50;;
60726;SDS011;46577;49.004;12.120;2023-09-12T02:29:12;31.87;;;22.27;;
60726;SDS011;46577;49.004;12.120;2023-09-12T02:31:38;23.60;;;21.10;;
60726;SDS011;46577;49.004;12.120;2023-09-12T02:34:04;26.97;;;23.10;;
60726;SDS011;46577;49.004;12.120;2023-09-12T02:36:30;25.57;;;21.83;;
60726;SDS011;46577;49.004;12.120;2023-09-12T02:38:56;24.17;;;21.30;;
60726;SDS011;46577;49.004;12.120;2023-09-12T02:41:22;28.63;;;22.93;;
60726;SDS011;46577;49.004;12.120;2023-09-12T02:43:48;25.03;;;21.00;;
60726;SDS011;46577;49.004;12.120;2023-09-12T02:46:14;31.77;;;25.67;;
60726;SDS011;46577;49.004;12.120;2023-09-12T02:48:40;32.00;;;24.17;;
60726;SDS011;46577;49.004;12.120;2023-09-12T02:51:06;32.23;;;23.17;;
60726;SDS011;46577;49.004;12.120;2023-09-12T02:53:32;32.40;;;20.60;;
60726;SDS011;46577;49.004;12.120;2023-09-12T02:55:58;28.93;;;22.20;;
60726;SDS011;46577;49.004;12.120;2023-09-12T02:58:24;24.00;;;20.93;;
60726;SDS011;46577;49.004;12.120;2023-09-12T03:00:50;24.43;;;21.33;;
60726;SDS011;46577;49.004;12.120;2023-09-12T03:03:19;26.10;;;21.00;;
60726;SDS011;46577;49.004;12.120;2023-09-12T03:05:45;28.27;;;22.87;;
60726;SDS011;46577;49.004;12.120;2023-09-12T03:08:11;26.07;;;21.50;;
60726;SDS011;46577;49.004;12.120;2023-09-12T03:10:37;30.40;;;25.00;;
60726;SDS011;46577;49.004;12.120;2023-09-12T03:13:03;28.33;;;24.13;;
60726;SDS011;46577;49.004;12.120;2023-09-12T03:15:29;30.10;;;24.57;;
60726;SDS011;46577;49.004;12.120;2023-09-12T03:17:55;30.13;;;24.17;;
60726;SDS011;46577;49.004;12.120;2023-09-12T03:20:21;32.80;;;26.10;;
60726;SDS011;46577;49.004;12.120;2023-09-12T03:22:47;33.40;;;24.50;;
60726;SDS011;46577;49.004;12.120;2023-09-12T03:25:13;29.00;;;24.90;;
60726;SDS011;46577;49.004;12.120;2023-09-12T03:27:39;30.73;;;23.43;;
60726;SDS011;46577;49.004;12.120;2023-09-12T03:30:05;30.60;;;25.87;;
60726;SDS011;46577;49.004;12.120;2023-09-12T03:32:31;31.50;;;26.17;;
60726;SDS011;46577;49.004;12.120;2023-09-12T03:34:57;30.03;;;23.77;;
60726;SDS011;46577;49.004;12.120;2023-09-12T03:37:23;28.17;;;24.50;;
60726;SDS011;46577;49.004;12.120;2023-09-12T03:39:52;31.53;;;24.63;;
60726;SDS011;46577;49.004;12.120;2023-09-12T03:42:18;31.20;;;25.00;;
60726;SDS011;46577;49.004;12.120;2023-09-12T03:44:44;39.17;;;23.63;;
60726;SDS011;46577;49.004;12.120;2023-09-12T03:47:10;31.60;;;25.00;;
60726;SDS011;46577;49.004;12.120;2023-09-12T03:49:36;30.30;;;25.57;;
60726;SDS011;46577;49.004;12.120;2023-09-12T03:52:02;28.20;;;23.60;;
60726;SDS011;46577;49.004;12.120;2023-09-12T03:54:29;33.90;;;24.10;;
60726;SDS011;46577;49.004;12.120;2023-09-12T03:56:55;30.27;;;24.77;;
60726;SDS011;46577;49.004;12.120;2023-09-12T03:59:21;36.80;;;23.70;;
60726;SDS011;46577;49.004;12.120;2023-09-12T04:01:47;27.20;;;22.20;;
60726;SDS011;46577;49.004;12.120;2023-09-12T04:04:13;30.40;;;22.07;;
60726;SDS011;46577;49.004;12.120;2023-09-12T04:06:39;27.57;;;21.57;;
60726;SDS011;46577;49.004;12.120;2023-09-12T04:09:06;27.73;;;22.07;;
60726;SDS011;46577;49.004;12.120;2023-09-12T04:11:32;32.40;;;21.67;;
60726;SDS011;46577;49.004;12.120;2023-09-12T04:13:57;27.73;;;22.43;;
60726;SDS011;46577;49.004;12.120;2023-09-12T04:16:23;25.37;;;21.50;;
60726;SDS011;46577;49.004;12.120;2023-09-12T04:18:49;25.10;;;22.07;;
60726;SDS011;46577;49.004;12.120;2023-09-12T04:21:15;29.93;;;23.33;;
60726;SDS011;46577;49.004;12.120;2023-09-12T04:23:41;27.33;;;22.73;;
60726;SDS011;46577;49.004;12.120;2023-09-12T04:26:07;28.57;;;22.33;;
60726;SDS011;46577;49.004;12.120;2023-09-12T04:28:33;27.33;;;21.30;;
60726;SDS011;46577;49.004;12.120;2023-09-12T04:31:03;26.30;;;21.53;;
60726;SDS011;46577;49.004;12.120;2023-09-12T04:33:29;29.80;;;21.03;;
60726;SDS011;46577;49.004;12.120;2023-09-12T04:35:57;35.10;;;21.93;;
60726;SDS011;46577;49.004;12.120;2023-09-12T04:38:23;33.83;;;22.57;;
60726;SDS011;46577;49.004;12.120;2023-09-12T04:40:55;28.80;;;21.57;;
60726;SDS011;46577;49.004;12.120;2023-09-12T04:43:22;27.17;;;22.80;;
60726;SDS011;46577;49.004;12.120;2023-09-12T04:45:48;31.90;;;24.10;;
60726;SDS011;46577;49.004;12.120;2023-09-12T04:48:14;30.13;;;25.50;;
60726;SDS011;46577;49.004;12.120;2023-09-12T04:50:41;29.47;;;23.67;;
60726;SDS011;46577;49.004;12.120;2023-09-12T04:53:10;26.57;;;22.37;;
60726;SDS011;46577;49.004;12.120;2023-09-12T04:55:36;28.93;;;23.20;;
60726;SDS011;46577;49.004;12.120;2023-09-12T04:58:03;30.40;;;22.90;;
60726;SDS011;46577;49.004;12.120;2023-09-12T05:00:29;32.17;;;22.97;;
60726;SDS011;46577;49.004;12.120;2023-09-12T05:02:55;29.67;;;23.67;;
60726;SDS011;46577;49.004;12.120;2023-09-12T05:05:21;31.40;;;22.30;;
60726;SDS011;46577;49.004;12.120;2023-09-12T05:07:47;25.33;;;22.17;;
60726;SDS011;46577;49.004;12.120;2023-09-12T05:10:13;33.63;;;22.37;;
60726;SDS011;46577;49.004;12.120;2023-09-12T05:12:39;25.83;;;21.20;;
60726;SDS011;46577;49.004;12.120;2023-09-12T05:15:05;27.90;;;21.00;;
60726;SDS011;46577;49.004;12.120;2023-09-12T05:17:31;26.07;;;19.63;;
60726;SDS011;46577;49.004;12.120;2023-09-12T05:19:57;23.90;;;20.57;;
60726;SDS011;46577;49.004;12.120;2023-09-12T05:22:23;29.80;;;19.40;;
60726;SDS011;46577;49.004;12.120;2023-09-12T05:24:49;24.33;;;19.13;;
60726;SDS011;46577;49.004;12.120;2023-09-12T05:27:15;22.90;;;19.00;;
60726;SDS011;46577;49.004;12.120;2023-09-12T05:29:41;22.77;;;17.00;;
60726;SDS011;46577;49.004;12.120;2023-09-12T05:32:07;25.70;;;18.40;;
60726;SDS011;46577;49.004;12.120;2023-09-12T05:34:33;20.90;;;17.20;;
60726;SDS011;46577;49.004;12.120;2023-09-12T05:36:59;29.50;;;16.07;;
60726;SDS011;46577;49.004;12.120;2023-09-12T05:39:25;22.07;;;16.17;;
60726;SDS011;46577;49.004;12.120;2023-09-12T05:41:51;24.83;;;16.60;;
60726;SDS011;46577;49.004;12.120;2023-09-12T05:44:17;19.50;;;15.00;;
60726;SDS011;46577;49.004;12.120;2023-09-12T05:46:47;24.80;;;16.80;;
60726;SDS011;46577;49.004;12.120;2023-09-12T05:49:16;22.93;;;15.30;;
60726;SDS011;46577;49.004;12.120;2023-09-12T05:51:42;26.80;;;15.10;;
60726;SDS011;46577;49.004;12.120;2023-09-12T05:54:09;23.07;;;14.50;;
60726;SDS011;46577;49.004;12.120;2023-09-12T05:56:35;32.03;;;16.20;;
60726;SDS011;46577;49.004;12.120;2023-09-12T05:59:01;25.90;;;14.80;;
60726;SDS011;46577;49.004;12.120;2023-09-12T06:01:27;26.97;;;13.77;;
60726;SDS011;46577;49.004;12.120;2023-09-12T06:03:53;28.27;;;14.20;;
60726;SDS011;46577;49.004;12.120;2023-09-12T06:06:19;23.80;;;15.37;;
60726;SDS011;46577;49.004;12.120;2023-09-12T06:08:45;31.03;;;15.07;;
60726;SDS011;46577;49.004;12.120;2023-09-12T06:11:11;32.53;;;15.30;;
60726;SDS011;46577;49.004;12.120;2023-09-12T06:13:37;25.73;;;14.00;;
60726;SDS011;46577;49.004;12.120;2023-09-12T06:16:04;16.90;;;13.73;;
60726;SDS011;46577;49.004;12.120;2023-09-12T06:18:30;27.57;;;16.10;;
60726;SDS011;46577;49.004;12.120;2023-09-12T06:20:58;18.57;;;14.70;;
60726;SDS011;46577;49.004;12.120;2023-09-12T06:23:24;18.83;;;14.70;;
60726;SDS011;46577;49.004;12.120;2023-09-12T06:25:50;19.43;;;14.90;;
60726;SDS011;46577;49.004;12.120;2023-09-12T06:28:25;23.43;;;13.83;;
60726;SDS011;46577;49.004;12.120;2023-09-12T06:30:51;16.17;;;13.73;;
60726;SDS011;46577;49.004;12.120;2023-09-12T06:33:17;17.50;;;14.57;;
60726;SDS011;46577;49.004;12.120;2023-09-12T06:35:43;17.30;;;15.17;;
60726;SDS011;46577;49.004;12.120;2023-09-12T06:38:09;17.00;;;13.90;;
60726;SDS011;46577;49.004;12.120;2023-09-12T06:40:35;18.17;;;14.57;;
60726;SDS011;46577;49.004;12.120;2023-09-12T06:43:01;23.60;;;15.07;;
60726;SDS011;46577;49.004;12.120;2023-09-12T06:45:27;19.93;;;14.17;;
60726;SDS011;46577;49.004;12.120;2023-09-12T06:47:55;20.53;;;13.30;;
60726;SDS011;46577;49.004;12.120;2023-09-12T06:50:21;26.53;;;13.03;;
60726;SDS011;46577;49.004;12.120;2023-09-12T06:52:47;13.77;;;12.30;;
60726;SDS011;46577;49.004;12.120;2023-09-12T06:55:13;14.17;;;12.83;;
60726;SDS011;46577;49.004;12.120;2023-09-12T06:57:39;14.00;;;12.17;;
60726;SDS011;46577;49.004;12.120;2023-09-12T07:00:05;15.57;;;11.30;;
60726;SDS011;46577;49.004;12.120;2023-09-12T07:02:32;15.97;;;12.20;;
60726;SDS011;46577;49.004;12.120;2023-09-12T07:04:58;12.20;;;11.10;;
60726;SDS011;46577;49.004;12.120;2023-09-12T07:07:24;12.60;;;11.40;;
60726;SDS011;46577;49.004;12.120;2023-09-12T07:09:50;12.67;;;11.63;;
60726;SDS011;46577;49.004;12.120;2023-09-12T07:12:16;12.23;;;10.20;;
60726;SDS011;46577;49.004;12.120;2023-09-12T07:14:42;12.07;;;11.00;;
60726;SDS011;46577;49.004;12.120;2023-09-12T07:17:08;11.90;;;10.67;;
60726;SDS011;46577;49.004;12.120;2023-09-12T07:19:35;11.53;;;10.40;;
60726;SDS011;46577;49.004;12.120;2023-09-12T07:22:01;12.87;;;11.67;;
60726;SDS011;46577;49.004;12.120;2023-09-12T07:24:28;11.93;;;10.60;;
60726;SDS011;46577;49.004;12.120;2023-09-12T07:26:54;12.23;;;9.63;;
60726;SDS011;46577;49.004;12.120;2023-09-12T07:29:20;11.83;;;10.73;;
60726;SDS011;46577;49.004;12.120;2023-09-12T07:31:46;11.93;;;10.83;;
60726;SDS011;46577;49.004;12.120;2023-09-12T07:34:12;12.80;;;10.50;;
60726;SDS011;46577;49.004;12.120;2023-09-12T07:36:39;12.37;;;11.07;;
60726;SDS011;46577;49.004;12.120;2023-09-12T07:39:05;11.17;;;10.07;;
60726;SDS011;46577;49.004;12.120;2023-09-12T07:41:31;11.57;;;10.30;;
60726;SDS011;46577;49.004;12.120;2023-09-12T07:43:57;11.67;;;10.57;;
60726;SDS011;46577;49.004;12.120;2023-09-12T07:46:26;13.33;;;11.93;;
60726;SDS011;46577;49.004;12.120;2023-09-12T07:48:52;14.73;;;12.20;;
60726;SDS011;46577;49.004;12.120;2023-09-12T07:51:18;12.10;;;10.90;;
60726;SDS011;46577;49.004;12.120;2023-09-12T07:53:44;11.70;;;10.70;;
60726;SDS011;46577;49.004;12.120;2023-09-12T07:56:10;12.23;;;10.43;;
60726;SDS011;46577;49.004;12.120;2023-09-12T07:58:36;10.50;;;9.60;;
60726;SDS011;46577;49.004;12.120;2023-09-12T08:01:06;10.10;;;9.20;;
60726;SDS011;46577;49.004;12.120;2023-09-12T08:03:33;9.82;;;9.00;;
60726;SDS011;46577;49.004;12.120;2023-09-12T08:05:59;11.07;;;8.73;;
60726;SDS011;46577;49.004;12.120;2023-09-12T08:08:25;9.32;;;8.48;;
60726;SDS011;46577;49.004;12.120;2023-09-12T08:10:51;10.63;;;8.13;;
60726;SDS011;46577;49.004;12.120;2023-09-12T08:13:17;9.98;;;8.95;;
60726;SDS011;46577;49.004;12.120;2023-09-12T08:15:43;9.07;;;8.18;;
60726;SDS011;46577;49.004;12.120;2023-09-12T08:18:10;8.93;;;8.13;;
60726;SDS011;46577;49.004;12.120;2023-09-12T08:20:36;9.13;;;7.57;;
60726;SDS011;46577;49.004;12.120;2023-09-12T08:23:02;9.80;;;9.00;;
60726;SDS011;46577;49.004;12.120;2023-09-12T08:25:28;10.40;;;9.40;;
60726;SDS011;46577;49.004;12.120;2023-09-12T08:27:54;9.82;;;9.02;;
60726;SDS011;46577;49.004;12.120;2023-09-12T08:30:20;9.40;;;8.60;;
60726;SDS011;46577;49.004;12.120;2023-09-12T08:32:46;10.15;;;9.25;;
60726;SDS011;46577;49.004;12.120;2023-09-12T08:35:12;9.75;;;8.88;;
60726;SDS011;46577;49.004;12.120;2023-09-12T08:37:41;11.20;;;9.82;;
60726;SDS011;46577;49.004;12.120;2023-09-12T08:40:08;10.23;;;9.20;;
60726;SDS011;46577;49.004;12.120;2023-09-12T08:42:42;10.43;;;9.35;;
60726;SDS011;46577;49.004;12.120;2023-09-12T08:45:12;9.98;;;8.57;;
60726;SDS011;46577;49.004;12.120;2023-09-12T08:47:40;10.18;;;9.27;;
60726;SDS011;46577;49.004;12.120;2023-09-12T08:50:07;10.43;;;8.20;;
60726;SDS011;46577;49.004;12.120;2023-09-12T08:52:35;11.68;;;7.88;;
60726;SDS011;46577;49.004;12.120;2023-09-12T08:55:01;8.25;;;7.53;;
60726;SDS011;46577;49.004;12.120;2023-09-12T08:57:28;8.07;;;7.43;;
60726;SDS011;46577;49.004;12.120;2023-09-12T08:59:55;7.95;;;7.25;;
60726;SDS011;46577;49.004;12.120;2023-09-12T09:02:21;9.00;;;8.20;;
60726;SDS011;46577;49.004;12.120;2023-09-12T09:04:48;9.18;;;7.80;;
60726;SDS011;46577;49.004;12.120;2023-09-12T09:07:15;8.48;;;7.78;;
60726;SDS011;46577;49.004;12.120;2023-09-12T09:09:42;8.30;;;7.60;;
60726;SDS011;46577;49.004;12.120;2023-09-12T09:12:08;7.70;;;6.82;;
60726;SDS011;46577;49.004;12.120;2023-09-12T09:14:35;9.90;;;6.45;;
60726;SDS011;46577;49.004;12.120;2023-09-12T09:17:01;11.90;;;6.93;;
60726;SDS011;46577;49.004;12.120;2023-09-12T09:19:43;8.38;;;6.95;;
60726;SDS011;46577;49.004;12.120;2023-09-12T09:22:10;9.13;;;6.20;;
60726;SDS011;46577;49.004;12.120;2023-09-12T09:24:36;7.78;;;6.45;;
60726;SDS011;46577;49.004;12.120;2023-09-12T09:27:02;7.13;;;6.55;;
60726;SDS011;46577;49.004;12.120;2023-09-12T09:29:28;6.70;;;6.07;;
60726;SDS011;46577;49.004;12.120;2023-09-12T09:31:57;6.60;;;6.00;;
60726;SDS011;46577;49.004;12.120;2023-09-12T09:34:23;7.75;;;5.95;;
60726;SDS011;46577;49.004;12.120;2023-09-12T09:36:50;6.57;;;5.97;;
60726;SDS011;46577;49.004;12.120;2023-09-12T09:39:17;6.20;;;5.55;;
60726;SDS011;46577;49.004;12.120;2023-09-12T09:41:50;5.40;;;5.07;;
60726;SDS011;46577;49.004;12.120;2023-09-12T09:44:17;6.28;;;5.68;;
60726;SDS011;46577;49.004;12.120;2023-09-12T09:46:43;6.38;;;5.35;;
60726;SDS011;46577;49.004;12.120;2023-09-12T09:49:19;6.32;;;5.82;;
60726;SDS011;46577;49.004;12.120;2023-09-12T09:51:45;5.40;;;5.00;;
60726;SDS011;46577;49.004;12.120;2023-09-12T09:54:11;6.30;;;5.70;;
60726;SDS011;46577;49.004;12.120;2023-09-12T09:56:47;5.45;;;5.05;;
60726;SDS011;46577;49.004;12.120;2023-09-12T09:59:14;5.18;;;4.65;;
60726;SDS011;46577;49.004;12.120;2023-09-12T10:01:41;7.63;;;5.43;;
60726;SDS011;46577;49.004;12.120;2023-09-12T10:04:08;6.80;;;4.75;;
60726;SDS011;46577;49.004;12.120;2023-09-12T10:06:35;5.50;;;4.90;;
60726;SDS011;46577;49.004;12.120;2023-09-12T10:09:02;4.97;;;4.63;;
60726;SDS011;46577;49.004;12.120;2023-09-12T10:11:31;5.72;;;5.22;;
60726;SDS011;46577;49.004;12.120;2023-09-12T10:13:59;5.13;;;4.63;;
60726;SDS011;46577;49.004;12.120;2023-09-12T10:16:36;6.00;;;5.50;;
60726;SDS011;46577;49.004;12.120;2023-09-12T10:19:11;6.68;;;6.07;;
60726;SDS011;46577;49.004;12.120;2023-09-12T10:22:21;13.38;;;6.30;;
60726;SDS011;46577;49.004;12.120;2023-09-12T10:24:28;6.95;;;6.35;;
60726;SDS011;46577;49.004;12.120;2023-09-12T10:26:55;6.35;;;5.72;;
60726;SDS011;46577;49.004;12.120;2023-09-12T10:29:21;6.20;;;5.65;;
60726;SDS011;46577;49.004;12.120;2023-09-12T10:31:47;6.32;;;5.72;;
60726;SDS011;46577;49.004;12.120;2023-09-12T10:34:14;6.22;;;5.45;;
60726;SDS011;46577;49.004;12.120;2023-09-12T10:36:40;4.40;;;4.13;;
60726;SDS011;46577;49.004;12.120;2023-09-12T10:39:07;5.35;;;4.95;;
60726;SDS011;46577;49.004;12.120;2023-09-12T10:41:37;6.10;;;4.85;;
60726;SDS011;46577;49.004;12.120;2023-09-12T10:44:09;5.40;;;4.95;;
60726;SDS011;46577;49.004;12.120;2023-09-12T10:46:38;4.35;;;3.95;;
60726;SDS011;46577;49.004;12.120;2023-09-12T10:49:08;6.70;;;4.47;;
60726;SDS011;46577;49.004;12.120;2023-09-12T10:51:39;5.60;;;4.03;;
60726;SDS011;46577;49.004;12.120;2023-09-12T10:54:05;6.78;;;5.20;;
60726;SDS011;46577;49.004;12.120;2023-09-12T10:56:32;5.32;;;4.70;;
60726;SDS011;46577;49.004;12.120;2023-09-12T11:01:40;4.65;;;4.35;;
60726;SDS011;46577;49.004;12.120;2023-09-12T11:06:49;4.03;;;3.70;;
60726;SDS011;46577;49.004;12.120;2023-09-12T11:09:20;4.18;;;3.90;;
60726;SDS011;46577;49.004;12.120;2023-09-12T11:11:47;3.67;;;3.47;;
60726;SDS011;46577;49.004;12.120;2023-09-12T11:14:13;4.78;;;4.28;;
60726;SDS011;46577;49.004;12.120;2023-09-12T11:16:40;4.05;;;3.80;;
60726;SDS011;46577;49.004;12.120;2023-09-12T11:19:19;3.75;;;3.45;;
60726;SDS011;46577;49.004;12.120;2023-09-12T11:21:49;4.53;;;3.97;;
60726;SDS011;46577;49.004;12.120;2023-09-12T11:24:16;4.50;;;4.10;;
60726;SDS011;46577;49.004;12.120;2023-09-12T11:29:20;4.50;;;4.20;;
60726;SDS011;46577;49.004;12.120;2023-09-12T11:31:58;5.07;;;4.68;;
60726;SDS011;46577;49.004;12.120;2023-09-12T11:34:27;4.07;;;3.78;;
60726;SDS011;46577;49.004;12.120;2023-09-12T11:36:57;4.95;;;4.45;;
60726;SDS011;46577;49.004;12.120;2023-09-12T11:39:25;4.80;;;4.40;;
60726;SDS011;46577;49.004;12.120;2023-09-12T11:41:53;6.70;;;4.50;;
60726;SDS011;46577;49.004;12.120;2023-09-12T11:44:20;5.20;;;4.70;;
60726;SDS011;46577;49.004;12.120;2023-09-12T11:46:47;4.82;;;4.53;;
60726;SDS011;46577;49.004;12.120;2023-09-12T11:49:14;5.25;;;4.75;;
60726;SDS011;46577;49.004;12.120;2023-09-12T11:51:47;4.78;;;4.38;;
60726;SDS011;46577;49.004;12.120;2023-09-12T11:54:20;5.15;;;4.68;;
60726;SDS011;46577;49.004;12.120;2023-09-12T11:56:47;5.32;;;4.80;;
60726;SDS011;46577;49.004;12.120;2023-09-12T11:59:14;5.47;;;4.70;;
60726;SDS011;46577;49.004;12.120;2023-09-12T12:01:40;5.63;;;4.70;;
60726;SDS011;46577;49.004;12.120;2023-09-12T12:04:06;5.32;;;4.85;;
60726;SDS011;46577;49.004;12.120;2023-09-12T12:06:32;5.10;;;4.65;;
60726;SDS011;46577;49.004;12.120;2023-09-12T12:09:00;5.60;;;4.35;;
60726;SDS011;46577;49.004;12.120;2023-09-12T12:11:29;5.30;;;4.55;;
60726;SDS011;46577;49.004;12.120;2023-09-12T12:13:56;4.60;;;3.97;;
60726;SDS011;46577;49.004;12.120;2023-09-12T12:16:22;4.60;;;4.20;;
60726;SDS011;46577;49.004;12.120;2023-09-12T12:18:48;11.88;;;5.65;;
60726;SDS011;46577;49.004;12.120;2023-09-12T12:21:19;5.75;;;4.78;;
60726;SDS011;46577;49.004;12.120;2023-09-12T12:23:45;5.82;;;5.28;;
60726;SDS011;46577;49.004;12.120;2023-09-12T12:26:11;6.35;;;5.68;;
60726;SDS011;46577;49.004;12.120;2023-09-12T12:28:38;7.50;;;6.70;;
60726;SDS011;46577;49.004;12.120;2023-09-12T12:31:04;7.45;;;6.75;;
60726;SDS011;46577;49.004;12.120;2023-09-12T12:33:30;7.03;;;6.43;;
60726;SDS011;46577;49.004;12.120;2023-09-12T12:36:00;7.97;;;6.57;;
60726;SDS011;46577;49.004;12.120;2023-09-12T12:38:27;7.90;;;7.10;;
60726;SDS011;46577;49.004;12.120;2023-09-12T12:40:52;8.03;;;7.27;;
60726;SDS011;46577;49.004;12.120;2023-09-12T12:43:19;9.60;;;7.00;;
60726;SDS011;46577;49.004;12.120;2023-09-12T12:45:52;8.00;;;7.23;;
60726;SDS011;46577;49.004;12.120;2023-09-12T12:48:28;8.50;;;7.70;;
60726;SDS011;46577;49.004;12.120;2023-09-12T12:50:55;14.40;;;8.30;;
60726;SDS011;46577;49.004;12.120;2023-09-12T12:53:36;10.30;;;7.60;;
60726;SDS011;46577;49.004;12.120;2023-09-12T12:56:02;8.67;;;7.90;;
60726;SDS011;46577;49.004;12.120;2023-09-12T12:58:28;8.47;;;7.77;;
60726;SDS011;46577;49.004;12.120;2023-09-12T13:00:54;8.50;;;7.47;;
60726;SDS011;46577;49.004;12.120;2023-09-12T13:03:20;12.03;;;9.10;;
60726;SDS011;46577;49.004;12.120;2023-09-12T13:05:46;9.53;;;8.63;;
60726;SDS011;46577;49.004;12.120;2023-09-12T13:08:12;9.53;;;7.70;;
60726;SDS011;46577;49.004;12.120;2023-09-12T13:10:38;9.97;;;8.57;;
60726;SDS011;46577;49.004;12.120;2023-09-12T13:13:04;10.53;;;8.67;;
60726;SDS011;46577;49.004;12.120;2023-09-12T13:15:30;14.40;;;8.10;;
60726;SDS011;46577;49.004;12.120;2023-09-12T13:17:56;8.30;;;7.50;;
60726;SDS011;46577;49.004;12.120;2023-09-12T13:20:22;9.00;;;8.13;;
60726;SDS011;46577;49.004;12.120;2023-09-12T13:22:48;8.83;;;8.00;;
60726;SDS011;46577;49.004;12.120;2023-09-12T13:25:15;17.03;;;8.63;;
60726;SDS011;46577;49.004;12.120;2023-09-12T13:27:41;13.10;;;7.80;;
60726;SDS011;46577;49.004;12.120;2023-09-12T13:30:07;8.73;;;7.80;;
60726;SDS011;46577;49.004;12.120;2023-09-12T13:32:33;9.63;;;8.03;;
60726;SDS011;46577;49.004;12.120;2023-09-12T13:34:59;8.33;;;7.53;;
60726;SDS011;46577;49.004;12.120;2023-09-12T13:37:25;11.33;;;7.83;;
60726;SDS011;46577;49.004;12.120;2023-09-12T13:39:52;8.10;;;7.27;;
60726;SDS011;46577;49.004;12.120;2023-09-12T13:42:18;13.53;;;8.37;;
60726;SDS011;46577;49.004;12.120;2023-09-12T13:44:46;8.43;;;7.10;;
60726;SDS011;46577;49.004;12.120;2023-09-12T13:47:12;8.80;;;7.60;;
60726;SDS011;46577;49.004;12.120;2023-09-12T13:49:38;11.87;;;7.90;;
60726;SDS011;46577;49.004;12.120;2023-09-12T13:52:04;9.37;;;7.67;;
60726;SDS011;46577;49.004;12.120;2023-09-12T13:54:31;8.33;;;7.53;;
60726;SDS011;46577;49.004;12.120;2023-09-12T13:56:57;11.70;;;8.57;;
60726;SDS011;46577;49.004;12.120;2023-09-12T13:59:23;11.80;;;8.23;;
60726;SDS011;46577;49.004;12.120;2023-09-12T14:01:49;12.67;;;8.63;;
60726;SDS011;46577;49.004;12.120;2023-09-12T14:04:15;9.03;;;7.73;;
60726;SDS011;46577;49.004;12.120;2023-09-12T14:06:42;12.60;;;7.67;;
60726;SDS011;46577;49.004;12.120;2023-09-12T14:09:08;14.33;;;7.63;;
60726;SDS011;46577;49.004;12.120;2023-09-12T14:11:34;9.90;;;7.83;;
60726;SDS011;46577;49.004;12.120;2023-09-12T14:14:01;12.30;;;8.47;;
60726;SDS011;46577;49.004;12.120;2023-09-12T14:16:27;12.93;;;8.50;;
60726;SDS011;46577;49.004;12.120;2023-09-12T14:18:53;10.57;;;8.20;;
60726;SDS011;46577;49.004;12.120;2023-09-12T14:21:19;12.00;;;6.70;;
60726;SDS011;46577;49.004;12.120;2023-09-12T14:23:45;9.67;;;8.67;;
60726;SDS011;46577;49.004;12.120;2023-09-12T14:26:11;17.10;;;7.70;;
60726;SDS011;46577;49.004;12.120;2023-09-12T14:28:37;11.67;;;8.03;;